createdAt,value
2022-11-29T00:03:07.982Z,3.19
2022-11-29T00:07:00.609Z,3.21
2022-11-29T00:10:53.676Z,2.88
2022-11-29T00:14:46.626Z,3.03
2022-11-29T00:18:39.497Z,3.22
2022-11-29T00:22:32.057Z,3.00
2022-11-29T00:26:24.796Z,2.98
2022-11-29T00:30:18.385Z,2.94
2022-11-29T00:34:12.632Z,2.90
2022-11-29T00:38:05.176Z,3.05
2022-11-29T00:41:57.654Z,3.03
2022-11-29T00:45:50.344Z,3.07
2022-11-29T00:49:42.973Z,3.11
2022-11-29T00:53:36.366Z,2.91
2022-11-29T00:57:29.006Z,3.07
2022-11-29T01:01:21.820Z,3.00
2022-11-29T01:05:14.494Z,3.17
2022-11-29T01:09:07.085Z,3.22
2022-11-29T01:12:59.612Z,3.01
2022-11-29T01:16:52.289Z,2.98
2022-11-29T01:20:44.712Z,2.87
2022-11-29T01:24:37.270Z,2.81
2022-11-29T01:28:30.115Z,2.86
2022-11-29T01:32:23.334Z,2.90
2022-11-29T01:36:15.985Z,3.03
2022-11-29T01:40:08.746Z,2.97
2022-11-29T01:44:28.053Z,2.83
2022-11-29T01:48:24.380Z,2.90
2022-11-29T01:52:24.735Z,2.80
2022-11-29T01:56:17.423Z,2.83
2022-11-29T02:00:13.337Z,2.76
2022-11-29T02:04:06.495Z,2.72
2022-11-29T02:08:00.160Z,2.66
2022-11-29T02:12:22.576Z,2.73
2022-11-29T02:16:45.716Z,2.61
2022-11-29T02:21:18.260Z,2.61
2022-11-29T02:25:58.884Z,2.41
2022-11-29T02:30:16.321Z,2.56
2022-11-29T02:34:17.803Z,2.52
2022-11-29T02:38:41.528Z,2.54
2022-11-29T02:43:04.440Z,2.45
2022-11-29T02:47:08.029Z,2.60
2022-11-29T02:51:13.652Z,2.39
2022-11-29T02:55:44.247Z,2.56
2022-11-29T02:59:55.088Z,2.38
2022-11-29T03:03:52.376Z,2.50
2022-11-29T03:07:49.515Z,2.46
2022-11-29T03:12:01.479Z,2.61
2022-11-29T03:16:07.932Z,2.45
2022-11-29T03:20:21.712Z,2.41
2022-11-29T03:24:22.944Z,2.46
2022-11-29T03:28:23.907Z,2.50
2022-11-29T03:32:27.274Z,2.29
2022-11-29T03:36:37.262Z,2.36
2022-11-29T03:40:48.144Z,2.36
2022-11-29T03:44:50.582Z,2.32
2022-11-29T03:48:50.045Z,2.32
2022-11-29T03:52:53.840Z,2.36
2022-11-29T03:56:46.732Z,2.54
2022-11-29T04:01:18.797Z,2.43
2022-11-29T04:05:17.929Z,2.21
2022-11-29T04:09:24.404Z,2.18
2022-11-29T04:14:07.806Z,2.24
2022-11-29T04:18:26.034Z,2.20
2022-11-29T04:22:54.194Z,2.28
2022-11-29T04:26:52.303Z,2.39
2022-11-29T04:31:25.397Z,2.46
2022-11-29T04:35:33.137Z,2.52
2022-11-29T04:39:37.704Z,2.45
2022-11-29T04:44:17.861Z,2.48
2022-11-29T04:48:33.014Z,2.15
2022-11-29T04:52:28.297Z,2.17
2022-11-29T04:56:36.745Z,2.07
2022-11-29T05:00:35.297Z,2.00
2022-11-29T05:04:36.802Z,2.14
2022-11-29T05:08:41.281Z,2.08
2022-11-29T05:12:52.433Z,2.28
2022-11-29T05:16:48.320Z,1.94
2022-11-29T05:20:53.960Z,1.97
2022-11-29T05:24:55.679Z,1.93
2022-11-29T05:29:05.409Z,1.87
2022-11-29T05:33:24.198Z,1.94
2022-11-29T05:37:33.812Z,1.70
2022-11-29T05:41:56.901Z,1.66
2022-11-29T05:45:57.363Z,1.81
2022-11-29T05:50:16.350Z,1.74
2022-11-29T05:54:41.032Z,1.80
2022-11-29T05:58:45.710Z,1.80
2022-11-29T06:03:03.807Z,1.94
2022-11-29T06:07:18.095Z,1.94
2022-11-29T06:11:33.132Z,1.76
2022-11-29T06:15:53.340Z,1.83
2022-11-29T06:20:26.559Z,1.67
2022-11-29T06:24:25.870Z,1.74
2022-11-29T06:28:30.855Z,2.03
2022-11-29T06:32:37.703Z,2.07
2022-11-29T06:36:43.188Z,1.98
2022-11-29T06:40:35.911Z,1.93
2022-11-29T06:44:28.857Z,1.97
2022-11-29T06:48:27.761Z,2.15
2022-11-29T06:52:43.970Z,2.18
2022-11-29T06:57:08.497Z,2.17
2022-11-29T07:01:15.195Z,2.24
2022-11-29T07:05:22.778Z,2.29
2022-11-29T07:09:20.400Z,2.38
2022-11-29T07:13:14.016Z,2.21
2022-11-29T07:17:12.434Z,2.48
2022-11-29T07:21:16.011Z,2.61
2022-11-29T07:25:28.817Z,2.48
2022-11-29T07:29:46.985Z,2.69
2022-11-29T07:33:48.490Z,2.69
2022-11-29T07:37:57.867Z,2.75
2022-11-29T07:41:59.458Z,2.64
2022-11-29T07:45:52.187Z,2.70
2022-11-29T07:49:44.965Z,2.77
2022-11-29T07:53:42.437Z,2.77
2022-11-29T07:57:36.817Z,2.96
2022-11-29T08:01:29.599Z,2.91
2022-11-29T08:05:23.389Z,2.75
2022-11-29T08:09:16.132Z,2.77
2022-11-29T08:13:09.433Z,2.96
2022-11-29T08:17:01.821Z,3.05
2022-11-29T08:20:54.430Z,3.28
2022-11-29T08:24:47.581Z,3.34
2022-11-29T08:28:40.525Z,3.56
2022-11-29T08:32:34.399Z,3.35
2022-11-29T08:36:27.073Z,3.46
2022-11-29T08:40:19.885Z,3.36
2022-11-29T08:44:12.453Z,3.35
2022-11-29T08:48:05.659Z,3.48
2022-11-29T08:52:16.905Z,3.49
2022-11-29T08:56:59.751Z,3.56
2022-11-29T09:00:24.682Z,3.59
2022-11-29T09:04:17.849Z,3.48
2022-11-29T09:08:10.455Z,3.38
2022-11-29T09:12:03.271Z,3.31
2022-11-29T09:15:55.782Z,3.40
2022-11-29T09:19:48.318Z,3.34
2022-11-29T09:23:43.186Z,3.24
2022-11-29T09:27:35.618Z,3.11
2022-11-29T09:31:29.965Z,3.11
2022-11-29T09:35:22.421Z,3.18
2022-11-29T09:39:14.970Z,3.25
2022-11-29T09:43:20.328Z,3.08
2022-11-29T09:47:50.533Z,3.25
2022-11-29T09:52:16.129Z,3.34
2022-11-29T09:56:23.707Z,3.29
2022-11-29T10:00:20.312Z,3.24
2022-11-29T10:04:18.570Z,3.40
2022-11-29T10:08:33.998Z,3.59
2022-11-29T10:12:52.862Z,3.70
2022-11-29T10:16:57.618Z,3.63
2022-11-29T10:20:53.953Z,3.77
2022-11-29T10:24:51.932Z,3.59
2022-11-29T10:28:47.776Z,3.59
2022-11-29T10:32:41.064Z,3.62
2022-11-29T10:36:41.043Z,3.79
2022-11-29T10:40:36.422Z,3.79
2022-11-29T10:44:32.104Z,3.93
2022-11-29T10:48:31.978Z,3.80
2022-11-29T10:52:24.841Z,3.80
2022-11-29T10:56:24.303Z,3.80
2022-11-29T11:00:17.185Z,3.87
2022-11-29T11:04:17.211Z,3.93
2022-11-29T11:08:18.089Z,4.01
2022-11-29T11:12:17.139Z,4.10
2022-11-29T11:16:20.741Z,4.22
2022-11-29T11:20:22.861Z,4.34
2022-11-29T11:24:25.138Z,4.34
2022-11-29T11:28:27.344Z,4.41
2022-11-29T11:32:20.382Z,4.52
2022-11-29T11:36:24.085Z,4.55
2022-11-29T11:40:29.447Z,4.57
2022-11-29T11:44:49.968Z,4.59
2022-11-29T11:48:42.740Z,4.48
2022-11-29T11:52:50.650Z,4.65
2022-11-29T11:56:43.673Z,4.57
2022-11-29T12:01:09.405Z,4.32
2022-11-29T12:05:05.119Z,4.45
2022-11-29T12:09:06.568Z,4.34
2022-11-29T12:13:00.974Z,4.37
2022-11-29T12:17:01.923Z,4.39
2022-11-29T12:20:58.589Z,4.48
2022-11-29T12:24:59.346Z,4.31
2022-11-29T12:28:52.936Z,4.31
2022-11-29T12:33:04.653Z,4.25
2022-11-29T12:37:20.648Z,4.46
2022-11-29T12:41:13.591Z,4.48
2022-11-29T12:45:30.268Z,4.35
2022-11-29T12:49:22.915Z,4.39
2022-11-29T12:53:40.016Z,4.41
2022-11-29T12:58:00.694Z,4.29
2022-11-29T13:02:23.646Z,4.41
2022-11-29T13:06:40.901Z,4.46
2022-11-29T13:10:55.215Z,4.52
2022-11-29T13:15:09.731Z,4.62
2022-11-29T13:19:29.858Z,4.57
2022-11-29T13:23:45.707Z,4.69
2022-11-29T13:28:02.038Z,4.65
2022-11-29T13:31:54.998Z,4.75
2022-11-29T13:35:56.581Z,4.62
2022-11-29T13:39:49.283Z,4.66
2022-11-29T13:43:45.549Z,4.65
2022-11-29T13:47:56.001Z,4.65
2022-11-29T13:51:49.581Z,4.63
2022-11-29T13:56:25.128Z,4.60
2022-11-29T14:00:44.788Z,4.50
2022-11-29T14:04:39.621Z,4.38
2022-11-29T14:08:55.140Z,4.32
2022-11-29T14:12:56.885Z,4.14
2022-11-29T14:16:52.490Z,4.11
2022-11-29T14:20:54.996Z,4.10
2022-11-29T14:25:08.175Z,4.08
2022-11-29T14:29:47.312Z,4.14
2022-11-29T14:33:58.407Z,3.91
2022-11-29T14:37:55.842Z,3.98
2022-11-29T14:42:08.126Z,3.74
2022-11-29T14:46:16.065Z,3.73
2022-11-29T14:50:47.747Z,3.76
2022-11-29T14:55:24.488Z,3.70
2022-11-29T14:59:46.275Z,3.63
2022-11-29T15:03:49.794Z,3.55
2022-11-29T15:08:20.797Z,3.46
2022-11-29T15:12:18.752Z,3.32
2022-11-29T15:16:36.955Z,3.29
2022-11-29T15:20:48.461Z,3.25
2022-11-29T15:25:01.419Z,3.25
2022-11-29T15:28:53.932Z,3.28
2022-11-29T15:32:46.757Z,3.07
2022-11-29T15:36:43.572Z,3.03
2022-11-29T15:40:37.351Z,3.01
2022-11-29T15:44:32.984Z,2.96
2022-11-29T15:48:26.800Z,2.93
2022-11-29T15:52:30.831Z,2.94
2022-11-29T15:56:42.726Z,2.94
2022-11-29T16:00:35.808Z,2.98
2022-11-29T16:04:29.579Z,3.14
2022-11-29T16:08:22.784Z,3.04
2022-11-29T16:12:17.972Z,3.04
2022-11-29T16:16:20.946Z,3.05
2022-11-29T16:20:13.886Z,2.97
2022-11-29T16:24:23.488Z,3.03
2022-11-29T16:28:16.588Z,2.96
2022-11-29T16:32:36.965Z,2.87
2022-11-29T16:36:29.851Z,2.77
2022-11-29T16:40:27.170Z,2.88
2022-11-29T16:44:41.888Z,2.86
2022-11-29T16:48:38.939Z,2.61
2022-11-29T16:52:33.686Z,2.79
2022-11-29T16:56:29.233Z,2.76
2022-11-29T17:00:24.905Z,2.77
2022-11-29T17:04:23.815Z,2.66
2022-11-29T17:08:17.761Z,2.61
2022-11-29T17:12:13.926Z,2.72
2022-11-29T17:16:12.921Z,2.73
2022-11-29T17:20:07.511Z,2.98
2022-11-29T17:24:00.074Z,3.00
2022-11-29T17:27:52.409Z,2.79
2022-11-29T17:31:46.237Z,2.75
2022-11-29T17:35:39.002Z,2.75
2022-11-29T17:39:32.403Z,2.86
2022-11-29T17:43:25.481Z,2.67
2022-11-29T17:47:18.424Z,2.61
2022-11-29T17:51:36.047Z,2.60
2022-11-29T17:55:28.253Z,2.35
2022-11-29T17:59:22.759Z,2.21
2022-11-29T18:03:15.805Z,2.14
2022-11-29T18:07:08.859Z,2.10
2022-11-29T18:11:11.092Z,2.07
2022-11-29T18:15:04.152Z,1.98
2022-11-29T18:18:59.056Z,1.87
2022-11-29T18:22:53.852Z,1.84
2022-11-29T18:26:47.367Z,1.73
2022-11-29T18:30:40.612Z,1.78
2022-11-29T18:34:33.639Z,1.53
2022-11-29T18:38:26.864Z,1.62
2022-11-29T18:42:19.526Z,1.63
2022-11-29T18:46:15.863Z,1.62
2022-11-29T18:50:09.448Z,1.67
2022-11-29T18:54:06.464Z,1.73
2022-11-29T18:57:59.525Z,1.80
2022-11-29T19:01:53.771Z,1.93
2022-11-29T19:05:52.227Z,1.94
2022-11-29T19:09:46.598Z,2.10
2022-11-29T19:13:41.664Z,2.11
2022-11-29T19:17:38.804Z,2.01
2022-11-29T19:21:34.762Z,2.05
2022-11-29T19:25:28.263Z,2.07
2022-11-29T19:29:22.055Z,2.05
2022-11-29T19:33:15.187Z,2.17
2022-11-29T19:37:09.915Z,2.10
2022-11-29T19:41:10.360Z,2.25
2022-11-29T19:45:17.023Z,2.25
2022-11-29T19:49:12.768Z,2.14
2022-11-29T19:53:05.491Z,2.38
2022-11-29T19:56:58.824Z,2.59
2022-11-29T20:00:51.357Z,2.42
2022-11-29T20:04:47.034Z,2.32
2022-11-29T20:08:41.055Z,2.21
2022-11-29T20:12:34.927Z,2.21
2022-11-29T20:16:29.266Z,2.31
2022-11-29T20:20:22.203Z,2.43
2022-11-29T20:24:16.624Z,2.25
2022-11-29T20:28:12.699Z,2.39
2022-11-29T20:32:05.565Z,2.43
2022-11-29T20:36:12.112Z,2.42
2022-11-29T20:40:17.184Z,2.46
2022-11-29T20:44:13.771Z,2.50
2022-11-29T20:48:20.549Z,2.49
2022-11-29T20:52:51.128Z,2.72
2022-11-29T20:56:44.273Z,2.80
2022-11-29T21:00:37.506Z,2.91
2022-11-29T21:04:30.540Z,2.72
2022-11-29T21:08:26.032Z,2.73
2022-11-29T21:12:18.842Z,2.75
2022-11-29T21:16:12.612Z,2.63
2022-11-29T21:20:06.105Z,2.64
2022-11-29T21:24:09.193Z,2.69
2022-11-29T21:28:02.502Z,2.72
2022-11-29T21:31:55.417Z,2.73
2022-11-29T21:35:53.473Z,2.80
2022-11-29T21:39:47.828Z,2.79
2022-11-29T21:44:05.626Z,2.83
2022-11-29T21:47:53.680Z,2.93
2022-11-29T21:51:46.393Z,2.97
2022-11-29T21:55:38.766Z,3.03
2022-11-29T21:59:31.404Z,2.96
2022-11-29T22:03:24.040Z,2.93
2022-11-29T22:07:16.829Z,2.97
2022-11-29T22:11:15.422Z,2.90
2022-11-29T22:15:08.641Z,2.97
2022-11-29T22:19:01.284Z,3.05
2022-11-29T22:22:58.548Z,3.08
2022-11-29T22:26:52.745Z,3.05
2022-11-29T22:30:45.329Z,3.09
2022-11-29T22:34:37.977Z,3.08
2022-11-29T22:38:30.713Z,3.09
2022-11-29T22:42:23.214Z,3.17
2022-11-29T22:46:20.709Z,3.17
2022-11-29T22:50:13.232Z,3.22
2022-11-29T22:54:08.029Z,3.21
2022-11-29T22:58:00.910Z,3.19
2022-11-29T23:01:53.951Z,3.17
2022-11-29T23:05:46.544Z,3.11
2022-11-29T23:09:39.342Z,3.11
2022-11-29T23:13:34.642Z,3.17
2022-11-29T23:17:27.455Z,3.24
2022-11-29T23:21:35.372Z,3.14
2022-11-29T23:25:27.848Z,3.14
2022-11-29T23:29:20.392Z,3.19
2022-11-29T23:33:13.009Z,3.26
2022-11-29T23:37:05.604Z,3.40
2022-11-29T23:40:58.309Z,3.38
2022-11-29T23:44:50.901Z,3.46
2022-11-29T23:48:44.180Z,3.51
2022-11-29T23:52:37.287Z,3.52
2022-11-29T23:56:35.434Z,3.62
